.
WxDataArchive / Data Records for 2008-09-17
2008-09-16 September 2008 2008-09-18

Data Records for Wednesday, 17 September 2008

Time	Temp	Chill	HIndex	Humid	Dewpt	 Wind 	HiWind	WindDir	Rain 	Barom 
-----	----	-----	------	-----	-----	------	------	-------	-----	----- 
00:00	51.6	51.6	51.6	92	49.4	0	0	---	0.00	30.160 
00:05	51.6	51.6	51.6	93	49.6	0	0	---	0.00	30.158 
00:10	51.6	51.6	51.6	93	49.6	0	0	---	0.00	30.159 
00:15	51.6	51.6	51.6	93	49.6	0	0	---	0.00	30.156 
00:20	51.6	51.6	51.6	93	49.6	0	0	---	0.00	30.154 
00:25	51.4	51.4	51.4	93	49.4	0	0	---	0.00	30.155 
00:30	51.3	51.3	51.3	93	49.3	0	0	---	0.00	30.156 
00:35	51.3	51.3	51.3	93	49.3	0	0	---	0.00	30.156 
00:40	51.1	51.1	51.1	93	49.1	0	0	---	0.00	30.155 
00:45	51.0	51.0	51.0	93	49.0	0	0	---	0.00	30.156 
00:50	51.0	51.0	51.0	94	49.3	0	0	---	0.00	30.154 
00:55	51.0	51.0	51.0	94	49.3	0	0	---	0.00	30.153 
01:00	51.0	51.0	51.0	94	49.3	0	0	---	0.00	30.154 
01:05	50.8	50.8	50.8	94	49.1	0	0	---	0.00	30.153 
01:10	50.8	50.8	50.8	94	49.1	0	0	---	0.00	30.153 
01:15	50.7	50.7	50.7	94	49.0	0	0	---	0.00	30.152 
01:20	50.7	50.7	50.7	94	49.0	0	0	---	0.00	30.153 
01:25	50.5	50.5	50.5	94	48.8	0	0	---	0.00	30.151 
01:30	50.4	50.4	50.4	94	48.7	0	0	---	0.00	30.149 
01:35	50.4	50.4	50.4	94	48.7	0	0	---	0.00	30.149 
01:40	50.2	50.2	50.2	94	48.5	0	0	---	0.00	30.148 
01:45	50.2	50.2	50.2	94	48.5	0	0	---	0.00	30.148 
01:50	50.2	50.2	50.2	94	48.5	0	0	---	0.00	30.147 
01:55	50.1	50.1	50.1	94	48.4	0	0	---	0.00	30.147 
02:00	50.1	50.1	50.1	94	48.4	0	0	---	0.00	30.146 
02:05	49.9	49.9	49.9	94	48.2	0	0	---	0.00	30.146 
02:10	49.8	49.8	49.8	95	48.4	0	0	---	0.00	30.146 
02:15	49.8	49.8	49.8	95	48.4	0	0	---	0.00	30.146 
02:20	49.6	49.6	49.6	94	47.9	0	0	---	0.00	30.146 
02:25	49.6	49.6	49.6	95	48.2	0	0	---	0.00	30.145 
02:30	49.6	49.6	49.6	95	48.2	0	0	---	0.00	30.145 
02:35	49.5	49.5	49.5	95	48.1	0	0	---	0.00	30.145 
02:40	49.5	49.5	49.5	95	48.1	0	0	---	0.00	30.145 
02:45	49.5	49.5	49.5	95	48.1	0	0	---	0.00	30.145 
02:50	49.4	49.4	49.4	95	48.0	0	0	---	0.00	30.145 
02:55	49.4	49.4	49.4	95	48.0	0	0	---	0.00	30.147 
03:00	49.4	49.4	49.4	95	48.0	0	0	---	0.00	30.147 
03:05	49.4	49.4	49.4	95	48.0	0	0	---	0.00	30.147 
03:10	49.4	49.4	49.4	95	48.0	0	0	---	0.00	30.147 
03:15	49.4	49.4	49.4	95	48.0	0	0	---	0.00	30.147 
03:20	49.4	49.4	49.4	95	48.0	0	0	---	0.00	30.147 
03:25	49.4	49.4	49.4	95	48.0	0	0	---	0.00	30.147 
03:30	49.4	49.4	49.4	95	48.0	0	0	---	0.00	30.147 
03:35	49.2	49.2	49.2	95	47.8	0	0	---	0.00	30.147 
03:40	49.2	49.2	49.2	95	47.8	0	0	---	0.00	30.147 
03:45	49.1	49.1	49.1	95	47.7	0	0	---	0.00	30.146 
03:50	49.1	49.1	49.1	95	47.7	0	0	---	0.00	30.145 
03:55	48.9	48.9	48.9	95	47.5	0	0	---	0.00	30.145 
04:00	48.9	48.9	48.9	96	47.8	0	0	---	0.00	30.145 
04:05	48.9	48.9	48.9	96	47.8	0	0	---	0.00	30.144 
04:10	48.9	48.9	48.9	96	47.8	0	0	---	0.00	30.146 
04:15	48.9	48.9	48.9	96	47.8	0	0	---	0.00	30.146 
04:20	48.9	48.9	48.9	96	47.8	0	0	---	0.00	30.146 
04:25	48.9	48.9	48.9	96	47.8	0	0	---	0.00	30.146 
04:30	48.9	48.9	48.9	96	47.8	0	0	---	0.00	30.146 
04:35	48.9	48.9	48.9	96	47.8	0	0	---	0.00	30.145 
04:40	48.9	48.9	48.9	96	47.8	0	0	---	0.00	30.145 
04:45	48.9	48.9	48.9	96	47.8	0	0	---	0.00	30.146 
04:50	48.8	48.8	48.8	96	47.7	0	0	---	0.00	30.147 
04:55	48.8	48.8	48.8	96	47.7	0	0	---	0.00	30.147 
05:00	48.8	48.8	48.8	96	47.7	0	0	---	0.00	30.147 
05:05	48.9	48.9	48.9	96	47.8	0	0	---	0.00	30.148 
05:10	49.1	49.1	49.1	96	48.0	0	0	---	0.00	30.148 
05:15	49.2	49.2	49.2	96	48.1	0	0	---	0.00	30.148 
05:20	49.4	49.4	49.4	96	48.3	0	0	---	0.00	30.148 
05:25	49.4	49.4	49.4	96	48.3	0	0	---	0.00	30.148 
05:30	49.4	49.4	49.4	96	48.3	0	0	---	0.00	30.148 
05:35	49.4	49.4	49.4	96	48.3	0	0	---	0.00	30.148 
05:40	49.4	49.4	49.4	96	48.3	0	0	---	0.00	30.149 
05:45	49.2	49.2	49.2	96	48.1	0	0	---	0.00	30.149 
05:50	49.2	49.2	49.2	96	48.1	0	0	---	0.00	30.149 
05:55	49.4	49.4	49.4	96	48.3	0	0	---	0.00	30.150 
06:00	49.5	49.5	49.5	96	48.4	0	0	---	0.00	30.150 
06:05	49.5	49.5	49.5	96	48.4	0	0	---	0.00	30.155 
06:10	49.5	49.5	49.5	96	48.4	0	0	---	0.00	30.156 
06:15	49.5	49.5	49.5	96	48.4	0	0	---	0.00	30.158 
06:20	49.6	49.6	49.6	96	48.5	0	0	---	0.00	30.157 
06:25	49.8	49.8	49.8	96	48.7	0	0	---	0.00	30.158 
06:30	49.9	49.9	49.9	96	48.8	0	0	---	0.00	30.161 
06:35	50.1	50.1	50.1	96	49.0	0	0	---	0.00	30.161 
06:40	50.2	50.2	50.2	96	49.1	0	0	---	0.00	30.161 
06:45	50.4	50.4	50.4	96	49.3	0	0	---	0.00	30.162 
06:50	50.5	50.5	50.5	96	49.4	0	0	---	0.00	30.163 
06:55	50.7	50.7	50.7	96	49.6	0	0	---	0.00	30.163 
07:00	50.8	50.8	50.8	96	49.7	0	1	270	0.00	30.164 
07:05	51.1	51.1	51.1	97	50.3	0	0	---	0.00	30.170 
07:10	51.3	51.3	51.3	97	50.5	0	1	270	0.00	30.171 
07:15	51.7	51.7	51.7	97	50.9	0	1	270	0.00	30.170 
07:20	52.0	52.0	52.0	97	51.2	0	1	270	0.00	30.169 
07:25	52.5	52.5	52.5	96	51.4	0	1	270	0.00	30.169 
07:30	52.9	52.9	52.9	96	51.8	0	1	270	0.00	30.169 
07:35	53.3	53.3	53.3	96	52.2	0	1	270	0.00	30.170 
07:40	53.8	53.8	53.8	96	52.7	0	1	270	0.00	30.168 
07:45	54.2	54.2	54.2	95	52.8	0	1	270	0.00	30.169 
07:50	54.8	54.8	54.8	94	53.1	0	1	270	0.00	30.171 
07:55	55.3	55.3	55.3	93	53.3	0	1	270	0.00	30.171 
08:00	55.9	55.9	55.9	92	53.6	0	2	270	0.00	30.169 
08:05	56.5	56.5	56.5	89	53.3	0	2	270	0.00	30.171 
08:10	56.9	56.9	56.9	88	53.4	0	2	270	0.00	30.171 
08:15	57.5	57.5	57.5	86	53.3	0	1	270	0.00	30.171 
08:20	58.3	58.3	58.3	83	53.2	0	1	270	0.00	30.170 
08:25	58.9	58.9	58.9	82	53.4	0	3	270	0.00	30.169 
08:30	59.3	59.3	59.3	79	52.8	1	3	270	0.00	30.168 
08:35	60.1	60.1	60.1	77	52.9	1	3	270	0.00	30.165 
08:40	60.7	60.7	60.7	76	53.1	1	3	270	0.00	30.165 
08:45	61.2	61.2	61.2	75	53.2	1	2	270	0.00	30.166 
08:50	61.6	61.6	61.6	74	53.2	0	2	270	0.00	30.165 
08:55	62.3	62.3	62.3	73	53.5	0	2	270	0.00	30.166 
09:00	62.7	62.7	62.7	71	53.2	1	3	248	0.00	30.166 
09:05	63.4	63.4	63.4	69	53.0	1	3	248	0.00	30.167 
09:10	63.9	63.9	63.9	68	53.1	1	3	248	0.00	30.164 
09:15	64.5	64.5	64.5	67	53.3	1	3	248	0.00	30.164 
09:20	65.0	65.0	65.0	66	53.4	1	3	315	0.00	30.164 
09:25	65.6	65.6	65.6	65	53.5	1	3	270	0.00	30.163 
09:30	66.1	66.1	66.1	64	53.6	1	3	248	0.00	30.162 
09:35	66.6	66.6	66.6	63	53.6	1	3	248	0.00	30.162 
09:40	67.1	67.1	67.1	64	54.5	1	2	248	0.00	30.162 
09:45	67.9	67.9	67.9	62	54.4	1	3	248	0.00	30.161 
09:50	68.3	68.3	68.3	60	53.9	2	4	248	0.00	30.164 
09:55	68.3	68.3	68.3	61	54.3	2	3	270	0.00	30.163 
10:00	68.8	68.8	68.8	59	53.9	1	3	270	0.00	30.164 
10:05	69.1	69.1	69.1	58	53.7	1	3	270	0.00	30.162 
10:10	69.3	69.3	69.3	59	54.3	2	4	270	0.00	30.163 
10:15	69.4	69.4	69.4	59	54.4	2	4	248	0.00	30.162 
10:20	69.6	69.6	69.6	58	54.2	2	4	248	0.00	30.164 
10:25	69.9	69.9	69.9	58	54.4	2	4	248	0.00	30.164 
10:30	70.3	70.3	70.3	58	54.8	1	3	248	0.00	30.165 
10:35	70.9	70.9	70.9	58	55.4	1	3	248	0.00	30.161 
10:40	71.3	71.3	71.3	56	54.8	1	3	248	0.00	30.160 
10:45	71.5	71.5	71.5	55	54.5	2	4	248	0.00	30.159 
10:50	71.8	71.8	71.8	57	55.7	1	3	225	0.00	30.158 
10:55	72.0	72.0	72.0	55	54.9	2	4	248	0.00	30.158 
11:00	72.3	72.3	72.3	57	56.2	1	3	248	0.00	30.157 
11:05	72.7	72.7	72.7	55	55.6	1	3	248	0.00	30.156 
11:10	72.8	72.8	72.8	54	55.2	2	4	248	0.00	30.156 
11:15	73.0	73.0	73.0	54	55.4	1	5	248	0.00	30.154 
11:20	73.2	73.2	73.2	56	56.5	1	4	248	0.00	30.154 
11:25	73.7	73.7	73.7	54	56.0	1	4	248	0.00	30.152 
11:30	73.7	73.7	73.7	53	55.5	2	5	248	0.00	30.150 
11:35	73.7	73.7	73.7	53	55.5	1	5	270	0.00	30.148 
11:40	74.0	74.0	74.0	53	55.8	1	4	270	0.00	30.147 
11:45	74.4	74.4	74.4	53	56.1	1	4	292	0.00	30.145 
11:50	74.4	74.4	74.4	51	55.1	2	4	248	0.00	30.143 
11:55	74.4	74.4	74.4	52	55.6	2	4	248	0.00	30.141 
12:00	74.7	74.7	74.7	51	55.4	1	4	248	0.00	30.141 
12:05	75.1	75.1	77.7	50	55.2	2	5	248	0.00	30.140 
12:10	75.3	75.3	77.7	50	55.4	1	4	248	0.00	30.139 
12:15	75.4	75.4	77.8	50	55.4	1	4	248	0.00	30.138 
12:20	75.6	75.6	77.9	49	55.1	2	5	248	0.00	30.137 
12:25	75.6	75.6	77.9	51	56.2	1	4	225	0.00	30.136 
12:30	75.8	75.8	78.0	50	55.8	1	4	270	0.00	30.134 
12:35	76.3	76.3	78.2	51	56.8	1	3	270	0.00	30.133 
12:40	76.3	76.3	78.2	48	55.1	2	5	248	0.00	30.129 
12:45	76.3	76.3	78.2	50	56.3	1	4	270	0.00	30.127 
12:50	76.5	76.5	78.3	49	55.9	1	5	248	0.00	30.124 
12:55	76.8	76.8	78.5	50	56.7	1	3	248	0.00	30.122 
13:00	77.2	77.2	78.7	49	56.5	2	4	292	0.00	30.122 
13:05	77.0	77.0	78.5	48	55.8	2	5	270	0.00	30.122 
13:10	77.4	77.4	78.9	51	57.8	1	3	315	0.00	30.121 
13:15	77.6	77.6	78.8	47	55.8	1	5	248	0.00	30.119 
13:20	77.6	77.6	78.8	46	55.2	2	3	248	0.00	30.115 
13:25	77.6	77.6	78.9	49	56.9	1	4	292	0.00	30.113 
13:30	77.6	77.6	78.8	47	55.8	1	3	248	0.00	30.111 
13:35	77.7	77.7	78.9	46	55.2	1	5	248	0.00	30.111 
13:40	77.9	77.9	79.0	47	56.0	1	4	248	0.00	30.108 
13:45	78.1	78.1	79.1	46	55.6	1	3	270	0.00	30.107 
13:50	78.1	78.1	79.2	47	56.2	1	4	270	0.00	30.106 
13:55	78.5	78.5	79.4	47	56.6	1	2	270	0.00	30.106 
14:00	78.5	78.5	79.4	46	56.0	1	3	270	0.00	30.104 
14:05	78.6	78.6	79.5	48	57.2	1	4	292	0.00	30.100 
14:10	78.6	78.6	79.4	46	56.1	1	3	248	0.00	30.098 
14:15	78.8	78.8	79.4	44	55.0	1	6	248	0.00	30.096 
14:20	78.6	78.6	79.3	44	54.8	3	5	270	0.00	30.094 
14:25	78.6	78.6	79.4	45	55.5	1	4	248	0.00	30.092 
14:30	78.6	78.6	79.3	44	54.8	1	3	248	0.00	30.091 
14:35	79.0	79.0	79.6	45	55.8	1	2	248	0.00	30.091 
14:40	79.2	79.2	79.8	45	56.0	1	4	270	0.00	30.091 
14:45	79.2	79.2	79.7	44	55.4	1	3	248	0.00	30.090 
14:50	79.4	79.4	80.0	46	56.8	1	3	248	0.00	30.090 
14:55	79.6	79.6	79.9	43	55.1	2	4	292	0.00	30.090 
15:00	79.4	79.4	79.8	44	55.6	2	4	270	0.00	30.090 
15:05	79.4	79.4	79.8	43	54.9	2	4	248	0.00	30.090 
15:10	79.0	79.0	79.6	45	55.8	1	3	248	0.00	30.087 
15:15	79.0	79.0	79.5	43	54.6	1	3	315	0.00	30.084 
15:20	79.2	79.2	79.7	44	55.4	2	4	270	0.00	30.084 
15:25	79.0	79.0	79.6	44	55.2	1	3	292	0.00	30.083 
15:30	79.0	79.0	79.5	43	54.6	1	4	270	0.00	30.083 
15:35	79.0	79.0	79.6	44	55.2	2	4	292	0.00	30.083 
15:40	78.8	78.8	79.5	45	55.6	1	4	292	0.00	30.081 
15:45	79.0	79.0	79.7	46	56.4	1	3	270	0.00	30.084 
15:50	79.0	79.0	79.5	43	54.6	1	3	270	0.00	30.082 
15:55	78.8	78.8	79.4	44	55.0	2	5	292	0.00	30.081 
16:00	78.8	78.8	79.5	45	55.6	2	4	248	0.00	30.083 
16:05	78.8	78.8	79.4	43	54.4	2	4	270	0.00	30.083 
16:10	78.8	78.8	79.6	46	56.2	1	3	270	0.00	30.079 
16:15	78.8	78.8	79.5	45	55.6	2	5	270	0.00	30.080 
16:20	78.6	78.6	79.3	44	54.8	2	4	270	0.00	30.080 
16:25	78.5	78.5	79.2	43	54.1	2	4	270	0.00	30.080 
16:30	78.6	78.6	79.3	44	54.8	2	4	270	0.00	30.080 
16:35	78.6	78.6	79.4	45	55.5	1	3	248	0.00	30.080 
16:40	78.5	78.5	79.3	45	55.4	1	3	248	0.00	30.080 
16:45	78.5	78.5	79.3	45	55.4	1	3	270	0.00	30.080 
16:50	78.5	78.5	79.3	45	55.4	1	3	248	0.00	30.079 
16:55	78.5	78.5	79.4	46	56.0	0	2	248	0.00	30.079 
17:00	78.5	78.5	79.2	44	54.7	1	3	248	0.00	30.079 
17:05	78.3	78.3	79.2	45	55.2	1	4	292	0.00	30.080 
17:10	78.3	78.3	79.1	44	54.6	2	4	270	0.00	30.083 
17:15	78.1	78.1	79.0	45	55.0	1	2	270	0.00	30.084 
17:20	77.9	77.9	78.9	45	54.8	1	4	270	0.00	30.086 
17:25	77.9	77.9	78.9	45	54.8	1	3	270	0.00	30.088 
17:30	77.7	77.7	78.8	45	54.6	1	4	315	0.00	30.087 
17:35	77.6	77.6	78.8	46	55.2	1	4	270	0.00	30.088 
17:40	77.6	77.6	78.8	47	55.8	0	1	270	0.00	30.088 
17:45	77.2	77.2	78.6	46	54.8	0	2	270	0.00	30.091 
17:50	77.0	77.0	78.5	46	54.6	1	2	270	0.00	30.091 
17:55	77.0	77.0	78.5	46	54.6	1	3	270	0.00	30.091 
18:00	76.8	76.8	78.4	46	54.4	1	2	270	0.00	30.089 
18:05	76.7	76.7	78.4	47	54.9	1	3	270	0.00	30.087 
18:10	76.5	76.5	78.3	48	55.3	0	2	292	0.00	30.088 
18:15	76.1	76.1	78.1	48	55.0	0	2	292	0.00	30.090 
18:20	76.0	76.0	78.1	49	55.4	0	2	292	0.00	30.090 
18:25	75.6	75.6	77.9	50	55.6	0	2	292	0.00	30.091 
18:30	75.3	75.3	77.7	50	55.4	0	1	292	0.00	30.090 
18:35	74.7	74.7	74.7	51	55.4	0	1	292	0.00	30.092 
18:40	74.4	74.4	74.4	51	55.1	0	1	292	0.00	30.092 
18:45	74.2	74.2	74.2	52	55.4	0	1	292	0.00	30.094 
18:50	73.9	73.9	73.9	53	55.7	0	0	---	0.00	30.093 
18:55	73.3	73.3	73.3	54	55.6	0	0	---	0.00	30.093 
19:00	72.8	72.8	72.8	54	55.2	0	0	---	0.00	30.093 
19:05	72.5	72.5	72.5	56	55.9	0	0	---	0.00	30.090 
19:10	72.0	72.0	72.0	57	55.9	0	0	---	0.00	30.090 
19:15	71.5	71.5	71.5	58	55.9	0	0	---	0.00	30.090 
19:20	70.9	70.9	70.9	58	55.4	0	0	---	0.00	30.092 
19:25	70.4	70.4	70.4	60	55.8	0	0	---	0.00	30.093 
19:30	69.9	69.9	69.9	61	55.8	0	0	---	0.00	30.095 
19:35	69.6	69.6	69.6	62	56.0	0	0	---	0.00	30.097 
19:40	69.1	69.1	69.1	63	56.0	0	0	---	0.00	30.099 
19:45	68.6	68.6	68.6	64	55.9	0	0	---	0.00	30.103 
19:50	68.3	68.3	68.3	66	56.5	0	0	---	0.00	30.107 
19:55	68.1	68.1	68.1	66	56.3	0	1	292	0.00	30.109 
20:00	68.3	68.3	68.3	65	56.1	0	0	---	0.00	30.111 
20:05	68.4	68.4	68.4	65	56.2	0	0	---	0.00	30.109 
20:10	68.3	68.3	68.3	66	56.5	0	0	---	0.00	30.110 
20:15	68.3	68.3	68.3	66	56.5	0	0	---	0.00	30.113 
20:20	68.4	68.4	68.4	66	56.6	0	0	---	0.00	30.116 
20:25	68.4	68.4	68.4	66	56.6	0	0	---	0.00	30.118 
20:30	68.4	68.4	68.4	66	56.6	0	0	---	0.00	30.120 
20:35	68.4	68.4	68.4	67	57.0	0	0	---	0.00	30.121 
20:40	68.4	68.4	68.4	67	57.0	0	0	---	0.00	30.122 
20:45	68.3	68.3	68.3	68	57.3	0	0	---	0.00	30.124 
20:50	68.1	68.1	68.1	68	57.1	0	0	---	0.00	30.127 
20:55	67.9	67.9	67.9	69	57.3	0	0	---	0.00	30.128 
21:00	67.8	67.8	67.8	69	57.2	0	0	---	0.00	30.129 
21:05	67.6	67.6	67.6	69	57.1	0	0	---	0.00	30.126 
21:10	67.4	67.4	67.4	70	57.3	0	0	---	0.00	30.129 
21:15	67.1	67.1	67.1	71	57.4	0	0	---	0.00	30.130 
21:20	66.8	66.8	66.8	72	57.5	0	0	---	0.00	30.130 
21:25	66.4	66.4	66.4	73	57.5	0	0	---	0.00	30.130 
21:30	66.3	66.3	66.3	73	57.4	0	0	---	0.00	30.132 
21:35	66.0	66.0	66.0	73	57.1	0	0	---	0.00	30.133 
21:40	65.8	65.8	65.8	74	57.3	0	0	---	0.00	30.133 
21:45	65.6	65.6	65.6	74	57.1	0	0	---	0.00	30.133 
21:50	65.5	65.5	65.5	75	57.4	0	0	---	0.00	30.134 
21:55	65.5	65.5	65.5	75	57.4	0	0	---	0.00	30.135 
22:00	65.3	65.3	65.3	76	57.5	0	0	---	0.00	30.137 
22:05	65.2	65.2	65.2	76	57.4	0	0	---	0.00	30.138 
22:10	65.0	65.0	65.0	77	57.6	0	0	---	0.00	30.138 
22:15	64.8	64.8	64.8	77	57.4	0	0	---	0.00	30.137 
22:20	64.7	64.7	64.7	78	57.7	0	0	---	0.00	30.138 
22:25	64.5	64.5	64.5	78	57.5	0	0	---	0.00	30.139 
22:30	64.3	64.3	64.3	79	57.6	0	0	---	0.00	30.137 
22:35	64.2	64.2	64.2	80	57.9	0	0	---	0.00	30.138 
22:40	63.9	63.9	63.9	80	57.6	0	0	---	0.00	30.141 
22:45	63.7	63.7	63.7	81	57.8	0	0	---	0.00	30.140 
22:50	63.5	63.5	63.5	82	57.9	0	0	---	0.00	30.141 
22:55	63.4	63.4	63.4	82	57.8	0	0	---	0.00	30.145 
23:00	63.1	63.1	63.1	83	57.8	0	0	---	0.00	30.144 
23:05	63.1	63.1	63.1	83	57.8	0	0	---	0.00	30.142 
23:10	62.7	62.7	62.7	84	57.8	0	0	---	0.00	30.143 
23:15	62.6	62.6	62.6	84	57.7	0	0	---	0.00	30.143 
23:20	62.4	62.4	62.4	85	57.8	0	0	---	0.00	30.145 
23:25	62.3	62.3	62.3	85	57.7	0	0	---	0.00	30.146 
23:30	62.1	62.1	62.1	86	57.9	0	0	---	0.00	30.146 
23:35	62.1	62.1	62.1	86	57.9	0	0	---	0.00	30.146 
23:40	62.0	62.0	62.0	87	58.1	0	0	---	0.00	30.146 
23:45	62.0	62.0	62.0	87	58.1	0	0	---	0.00	30.146 
23:50	61.8	61.8	61.8	88	58.2	0	0	---	0.00	30.146 
23:55	61.6	61.6	61.6	88	58.0	0	0	---	0.00	30.147 

CoCoRaHS
IN-AL-39
A2 Web Hosting
Creative Commons License
GoDaddy
Look for:

loaded 2017-10-17 09:16:50 • last modified 2010-11-18 10:43:29
Privacy PolicyDisclaimer
• wx.awcolley.com is powered by PmWiki v.2002016 •
• all content (unless otherwise noted) © 2017 A W Colley